createdAt,value
2023-04-14T00:00:14.417Z,97171.31
2023-04-14T00:04:17.702Z,97174.00
2023-04-14T00:08:20.016Z,97177.06
2023-04-14T00:12:22.124Z,97184.19
2023-04-14T00:16:24.267Z,97208.66
2023-04-14T00:20:26.504Z,97201.72
2023-04-14T00:24:29.459Z,97212.59
2023-04-14T00:28:31.712Z,97206.59
2023-04-14T00:32:34.300Z,97188.84
2023-04-14T00:36:37.115Z,97186.06
2023-04-14T00:40:39.110Z,97186.38
2023-04-14T00:44:42.573Z,97185.09
2023-04-14T00:48:44.922Z,97174.50
2023-04-14T00:52:49.252Z,97176.69
2023-04-14T00:56:52.145Z,97187.28
2023-04-14T01:00:55.764Z,97185.66
2023-04-14T01:05:01.399Z,97177.63
2023-04-14T01:09:08.430Z,97172.38
2023-04-14T01:13:33.443Z,97176.59
2023-04-14T01:17:50.103Z,97168.88
2023-04-14T01:21:57.867Z,97181.81
2023-04-14T01:26:22.077Z,97188.44
2023-04-14T01:30:46.234Z,97182.84
2023-04-14T01:34:55.965Z,97189.22
2023-04-14T01:39:06.411Z,97186.28
2023-04-14T01:43:12.985Z,97193.25
2023-04-14T01:47:18.740Z,97206.06
2023-04-14T01:51:23.125Z,97196.31
2023-04-14T01:55:28.051Z,97194.09
2023-04-14T01:59:34.528Z,97191.75
2023-04-14T02:03:38.828Z,97201.38
2023-04-14T02:07:44.733Z,97185.22
2023-04-14T02:11:52.336Z,97175.53
2023-04-14T02:15:56.679Z,97177.94
2023-04-14T02:20:01.177Z,97169.63
2023-04-14T02:24:03.821Z,97170.13
2023-04-14T02:28:16.107Z,97168.66
2023-04-14T02:32:25.089Z,97172.69
2023-04-14T02:36:34.257Z,97164.66
2023-04-14T02:40:41.260Z,97160.94
2023-04-14T02:44:49.208Z,97164.88
2023-04-14T02:48:54.323Z,97151.28
2023-04-14T02:52:59.397Z,97137.53
2023-04-14T02:57:11.355Z,97121.22
2023-04-14T03:01:19.425Z,97120.09
2023-04-14T03:05:24.583Z,97129.91
2023-04-14T03:09:35.362Z,97142.34
2023-04-14T03:13:41.571Z,97133.00
2023-04-14T03:17:48.151Z,97126.22
2023-04-14T03:21:51.478Z,97116.78
2023-04-14T03:25:55.335Z,97113.16
2023-04-14T03:30:07.322Z,97109.91
2023-04-14T03:34:15.436Z,97107.25
2023-04-14T03:38:21.824Z,97111.69
2023-04-14T03:42:26.241Z,97112.16
2023-04-14T03:46:29.209Z,97112.38
2023-04-14T03:50:37.189Z,97119.75
2023-04-14T03:54:42.301Z,97127.19
2023-04-14T03:58:50.668Z,97135.53
2023-04-14T04:02:54.428Z,97149.16
2023-04-14T04:06:59.230Z,97157.63
2023-04-14T04:11:06.811Z,97160.06
2023-04-14T04:15:09.836Z,97165.59
2023-04-14T04:19:14.638Z,97165.03
2023-04-14T04:23:18.649Z,97176.25
2023-04-14T04:27:28.071Z,97185.22
2023-04-14T04:31:40.527Z,97181.97
2023-04-14T04:35:43.638Z,97196.28
2023-04-14T04:39:48.090Z,97200.22
2023-04-14T04:43:51.901Z,97203.75
2023-04-14T04:47:53.968Z,97215.88
2023-04-14T04:51:59.877Z,97211.88
2023-04-14T04:56:03.206Z,97218.22
2023-04-14T05:00:06.491Z,97210.72
2023-04-14T05:04:08.633Z,97204.03
2023-04-14T05:08:13.705Z,97203.06
2023-04-14T05:12:17.290Z,97212.59
2023-04-14T05:16:19.848Z,97221.44
2023-04-14T05:20:22.234Z,97232.72
2023-04-14T05:24:25.627Z,97227.19
2023-04-14T05:28:27.803Z,97223.41
2023-04-14T05:32:29.971Z,97231.28
2023-04-14T05:36:32.259Z,97227.63
2023-04-14T05:40:34.324Z,97226.81
2023-04-14T05:44:37.319Z,97242.88
2023-04-14T05:48:39.380Z,97248.34
2023-04-14T05:52:41.495Z,97247.97
2023-04-14T05:56:43.652Z,97245.66
2023-04-14T06:00:45.704Z,97237.22
2023-04-14T06:04:48.060Z,97249.41
2023-04-14T06:08:50.698Z,97253.66
2023-04-14T06:12:52.802Z,97254.09
2023-04-14T06:16:55.545Z,97255.28
2023-04-14T06:20:57.673Z,97270.84
2023-04-14T06:25:00.207Z,97289.59
2023-04-14T06:29:03.583Z,97294.16
2023-04-14T06:33:06.316Z,97294.16
2023-04-14T06:37:08.519Z,97292.97
2023-04-14T06:41:10.717Z,97299.34
2023-04-14T06:45:13.049Z,97303.66
2023-04-14T06:49:17.068Z,97312.19
2023-04-14T06:53:19.333Z,97293.31
2023-04-14T06:57:21.797Z,97287.66
2023-04-14T07:01:23.953Z,97278.84
2023-04-14T07:05:44.497Z,97284.47
2023-04-14T07:09:46.593Z,97286.81
2023-04-14T07:13:48.758Z,97288.41
2023-04-14T07:17:50.974Z,97293.31
2023-04-14T07:21:53.129Z,97298.53
2023-04-14T07:25:58.991Z,97292.50
2023-04-14T07:30:01.029Z,97309.53
2023-04-14T07:34:03.238Z,97311.31
2023-04-14T07:38:05.715Z,97321.88
2023-04-14T07:42:07.985Z,97329.84
2023-04-14T07:46:10.570Z,97334.59
2023-04-14T07:50:12.859Z,97329.88
2023-04-14T07:54:16.138Z,97330.25
2023-04-14T07:58:18.216Z,97337.94
2023-04-14T08:02:22.330Z,97347.16
2023-04-14T08:06:24.485Z,97351.78
2023-04-14T08:10:26.628Z,97365.41
2023-04-14T08:14:29.635Z,97370.03
2023-04-14T08:18:32.013Z,97380.75
2023-04-14T08:22:35.493Z,97376.41
2023-04-14T08:26:37.583Z,97384.53
2023-04-14T08:30:39.960Z,97383.41
2023-04-14T08:35:37.870Z,97389.41
2023-04-14T08:39:04.350Z,97399.47
2023-04-14T08:43:09.389Z,97412.59
2023-04-14T08:47:12.141Z,97413.25
2023-04-14T08:51:16.725Z,97426.56
2023-04-14T08:55:19.399Z,97417.19
2023-04-14T08:59:22.160Z,97420.88
2023-04-14T09:03:25.937Z,97422.00
2023-04-14T09:07:29.578Z,97432.50
2023-04-14T09:11:32.700Z,97432.59
2023-04-14T09:15:36.391Z,97441.41
2023-04-14T09:20:36.314Z,97444.38
2023-04-14T09:24:02.491Z,97443.13
2023-04-14T09:28:04.674Z,97437.72
2023-04-14T09:32:07.976Z,97441.66
2023-04-14T09:36:24.248Z,97454.66
2023-04-14T09:40:30.733Z,97453.81
2023-04-14T09:44:33.474Z,97464.47
2023-04-14T09:48:37.762Z,97468.34
2023-04-14T09:52:40.952Z,97465.84
2023-04-14T09:56:46.126Z,97480.53
2023-04-14T10:00:51.306Z,97476.16
2023-04-14T10:05:06.728Z,97472.97
2023-04-14T10:09:21.378Z,97471.88
2023-04-14T10:13:23.460Z,97478.03
2023-04-14T10:17:27.193Z,97472.63
2023-04-14T10:21:31.497Z,97463.78
2023-04-14T10:25:34.090Z,97456.50
2023-04-14T10:29:36.694Z,97445.28
2023-04-14T10:33:39.262Z,97451.53
2023-04-14T10:37:50.243Z,97443.31
2023-04-14T10:41:53.649Z,97447.22
2023-04-14T10:45:56.498Z,97445.63
2023-04-14T10:49:59.104Z,97459.94
2023-04-14T10:54:03.597Z,97453.88
2023-04-14T10:58:06.617Z,97476.34
2023-04-14T11:02:29.987Z,97461.78
2023-04-14T11:06:47.772Z,97475.91
2023-04-14T11:10:51.461Z,97471.56
2023-04-14T11:15:04.299Z,97452.63
2023-04-14T11:19:15.774Z,97447.09
2023-04-14T11:23:17.946Z,97454.97
2023-04-14T11:27:20.118Z,97446.69
2023-04-14T11:31:27.730Z,97447.31
2023-04-14T11:35:31.497Z,97452.38
2023-04-14T11:39:36.089Z,97433.13
2023-04-14T11:43:38.947Z,97429.84
2023-04-14T11:47:46.881Z,97439.56
2023-04-14T11:51:49.090Z,97456.50
2023-04-14T11:55:54.977Z,97446.22
2023-04-14T11:59:57.404Z,97452.56
2023-04-14T12:03:59.887Z,97448.66
2023-04-14T12:08:04.599Z,97439.44
2023-04-14T12:12:16.969Z,97457.97
2023-04-14T12:16:19.842Z,97466.69
2023-04-14T12:20:22.671Z,97470.09
2023-04-14T12:24:32.957Z,97464.69
2023-04-14T12:28:37.274Z,97475.38
2023-04-14T12:32:40.802Z,97474.72
2023-04-14T12:36:52.122Z,97477.41
2023-04-14T12:40:55.091Z,97477.38
2023-04-14T12:45:02.416Z,97471.66
2023-04-14T12:49:04.561Z,97471.75
2023-04-14T12:53:26.362Z,97485.78
2023-04-14T12:57:29.137Z,97474.97
2023-04-14T13:01:31.294Z,97471.84
2023-04-14T13:05:33.663Z,97468.25
2023-04-14T13:09:35.788Z,97469.38
2023-04-14T13:13:37.962Z,97478.41
2023-04-14T13:17:40.173Z,97473.56
2023-04-14T13:21:42.424Z,97457.56
2023-04-14T13:25:44.884Z,97456.00
2023-04-14T13:29:47.077Z,97454.41
2023-04-14T13:33:49.270Z,97450.78
2023-04-14T13:37:51.614Z,97444.09
2023-04-14T13:41:53.929Z,97443.16
2023-04-14T13:45:58.190Z,97443.31
2023-04-14T13:50:01.108Z,97440.06
2023-04-14T13:54:03.636Z,97450.00
2023-04-14T13:58:05.987Z,97452.72
2023-04-14T14:02:08.726Z,97444.28
2023-04-14T14:06:11.151Z,97436.84
2023-04-14T14:10:13.387Z,97428.97
2023-04-14T14:14:15.584Z,97426.06
2023-04-14T14:18:17.759Z,97428.34
2023-04-14T14:22:20.397Z,97425.06
2023-04-14T14:26:22.626Z,97413.84
2023-04-14T14:30:24.956Z,97414.63
2023-04-14T14:34:27.827Z,97417.53
2023-04-14T14:38:30.225Z,97430.47
2023-04-14T14:42:32.646Z,97430.00
2023-04-14T14:46:35.222Z,97430.22
2023-04-14T14:50:37.882Z,97434.50
2023-04-14T14:54:40.119Z,97441.06
2023-04-14T14:58:44.282Z,97439.31
2023-04-14T15:02:46.812Z,97444.06
2023-04-14T15:06:51.880Z,97436.16
2023-04-14T15:10:54.084Z,97462.25
2023-04-14T15:14:56.371Z,97460.75
2023-04-14T15:18:59.721Z,97459.03
2023-04-14T15:23:02.090Z,97463.53
2023-04-14T15:27:04.367Z,97466.56
2023-04-14T15:31:06.650Z,97468.50
2023-04-14T15:35:09.382Z,97471.56
2023-04-14T15:39:11.467Z,97471.28
2023-04-14T15:43:16.209Z,97474.91
2023-04-14T15:47:18.751Z,97486.09
2023-04-14T15:51:20.987Z,97482.81
2023-04-14T15:55:23.234Z,97497.28
2023-04-14T15:59:28.848Z,97506.81
2023-04-14T16:03:31.183Z,97506.97
2023-04-14T16:07:33.643Z,97513.44
2023-04-14T16:11:36.347Z,97519.41
2023-04-14T16:15:38.408Z,97529.78
2023-04-14T16:19:40.606Z,97514.00
2023-04-14T16:23:42.897Z,97512.44
2023-04-14T16:27:45.150Z,97508.19
2023-04-14T16:31:47.275Z,97508.72
2023-04-14T16:35:49.686Z,97518.31
2023-04-14T16:39:56.300Z,97515.56
2023-04-14T16:43:58.644Z,97520.09
2023-04-14T16:48:01.211Z,97519.38
2023-04-14T16:52:03.822Z,97522.31
2023-04-14T16:56:06.522Z,97528.25
2023-04-14T17:00:13.721Z,97524.09
2023-04-14T17:04:16.170Z,97530.03
2023-04-14T17:08:18.496Z,97530.06
2023-04-14T17:12:20.894Z,97528.72
2023-04-14T17:16:23.086Z,97533.16
2023-04-14T17:20:25.780Z,97543.78
2023-04-14T17:24:29.806Z,97547.22
2023-04-14T17:28:33.908Z,97557.19
2023-04-14T17:32:36.184Z,97555.06
2023-04-14T17:36:39.630Z,97560.16
2023-04-14T17:40:41.897Z,97557.63
2023-04-14T17:44:43.998Z,97559.69
2023-04-14T17:48:46.458Z,97553.19
2023-04-14T17:52:50.374Z,97557.53
2023-04-14T17:56:52.829Z,97551.81
2023-04-14T18:00:55.683Z,97553.97
2023-04-14T18:04:57.895Z,97551.28
2023-04-14T18:09:00.389Z,97556.13
2023-04-14T18:13:02.564Z,97560.13
2023-04-14T18:17:05.137Z,97569.56
2023-04-14T18:21:08.239Z,97566.75
2023-04-14T18:25:10.579Z,97584.03
2023-04-14T18:29:12.835Z,97592.28
2023-04-14T18:33:15.028Z,97595.44
2023-04-14T18:37:17.753Z,97602.41
2023-04-14T18:41:20.008Z,97608.91
2023-04-14T18:45:22.244Z,97609.50
2023-04-14T18:49:25.080Z,97614.91
2023-04-14T18:53:27.653Z,97625.81
2023-04-14T18:57:30.903Z,97629.88
2023-04-14T19:01:35.879Z,97641.97
2023-04-14T19:05:38.300Z,97650.44
2023-04-14T19:09:40.646Z,97657.47
2023-04-14T19:13:42.885Z,97653.50
2023-04-14T19:17:45.174Z,97661.28
2023-04-14T19:21:47.728Z,97666.28
2023-04-14T19:25:50.720Z,97677.31
2023-04-14T19:29:52.772Z,97681.81
2023-04-14T19:33:55.204Z,97681.94
2023-04-14T19:37:58.020Z,97696.53
2023-04-14T19:42:00.547Z,97701.84
2023-04-14T19:46:04.955Z,97705.16
2023-04-14T19:50:08.161Z,97709.66
2023-04-14T19:54:10.887Z,97724.56
2023-04-14T19:58:12.991Z,97720.59
2023-04-14T20:02:15.604Z,97717.94
2023-04-14T20:06:19.584Z,97731.53
2023-04-14T20:10:22.256Z,97728.88
2023-04-14T20:14:24.419Z,97722.09
2023-04-14T20:18:27.929Z,97734.66
2023-04-14T20:22:33.596Z,97733.56
2023-04-14T20:26:35.808Z,97730.69
2023-04-14T20:30:38.273Z,97736.00
2023-04-14T20:34:40.903Z,97729.38
2023-04-14T20:38:43.514Z,97721.97
2023-04-14T20:42:45.823Z,97731.34
2023-04-14T20:46:48.789Z,97737.22
2023-04-14T20:50:51.736Z,97740.16
2023-04-14T20:54:54.922Z,97752.66
2023-04-14T20:58:58.928Z,97753.25
2023-04-14T21:03:01.343Z,97752.28
2023-04-14T21:07:04.073Z,97760.50
2023-04-14T21:11:16.811Z,97757.03
2023-04-14T21:15:44.946Z,97745.09
2023-04-14T21:19:42.277Z,97756.25
2023-04-14T21:23:44.572Z,97746.94
2023-04-14T21:27:46.676Z,97743.50
2023-04-14T21:31:48.780Z,97743.25
2023-04-14T21:35:50.916Z,97740.34
2023-04-14T21:39:53.839Z,97735.28
2023-04-14T21:43:56.026Z,97737.69
2023-04-14T21:47:58.902Z,97735.28
2023-04-14T21:52:01.694Z,97734.78
2023-04-14T21:56:09.970Z,97749.59
2023-04-14T22:00:15.638Z,97750.66
2023-04-14T22:04:28.809Z,97754.91
2023-04-14T22:08:35.947Z,97754.38
2023-04-14T22:12:39.946Z,97747.22
2023-04-14T22:16:42.947Z,97753.84
2023-04-14T22:20:45.262Z,97751.47
2023-04-14T22:24:47.496Z,97751.19
2023-04-14T22:28:49.923Z,97757.56
2023-04-14T22:32:52.140Z,97753.84
2023-04-14T22:36:55.451Z,97755.97
2023-04-14T22:40:57.476Z,97755.44
2023-04-14T22:44:59.626Z,97748.28
2023-04-14T22:49:02.049Z,97749.59
2023-04-14T22:53:05.406Z,97746.41
2023-04-14T22:57:07.567Z,97749.06
2023-04-14T23:01:21.295Z,97742.97
2023-04-14T23:05:24.454Z,97737.16
2023-04-14T23:09:30.506Z,97727.09
2023-04-14T23:13:32.701Z,97723.63
2023-04-14T23:17:35.719Z,97717.00
2023-04-14T23:21:37.834Z,97711.69
2023-04-14T23:25:40.077Z,97706.38
2023-04-14T23:29:42.303Z,97706.91
2023-04-14T23:33:45.433Z,97704.22
2023-04-14T23:37:47.628Z,97699.16
2023-04-14T23:41:49.922Z,97698.09
2023-04-14T23:45:52.673Z,97699.41
2023-04-14T23:49:54.802Z,97701.69
2023-04-14T23:53:59.468Z,97701.38
